Time;durP1;ratioP1;P1;durP2;ratioP2;P2;SDS_P1;SDS_P2;PMS_P1;PMS_P2;Temp;Humidity;BMP_temperature;BMP_pressure;BME280_temperature;BME280_humidity;BME280_pressure;Samples;Min_cycle;Max_cycle;Signal;HPM_P1;HPM_P2
2022/02/08 00:01:26;;;;;;;7.13;1.50;;;;;;;-0.27;77.24;98798.41;5075204;28;20097;-62
2022/02/08 00:03:52;;;;;;;5.15;1.08;;;;;;;-0.25;77.17;98803.59;5080424;28;20040;-61
2022/02/08 00:09:23;;;;;;;3.35;1.33;;;;;;;-0.22;77.32;98804.13;5042713;28;20107;-62
2022/02/08 00:11:50;;;;;;;5.88;1.35;;;;;;;-0.20;77.23;98815.50;5078452;28;20060;-62
2022/02/08 00:14:16;;;;;;;4.85;1.20;;;;;;;-0.21;77.36;98816.47;5088921;28;20039;-62
2022/02/08 00:16:43;;;;;;;6.05;1.48;;;;;;;-0.11;77.09;98818.25;5088454;28;20216;-62
2022/02/08 00:19:10;;;;;;;7.50;1.42;;;;;;;-0.14;77.26;98816.72;5076566;28;20036;-62
2022/02/08 00:21:36;;;;;;;11.23;1.75;;;;;;;-0.14;77.34;98809.56;5089438;28;20038;-62
2022/02/08 00:24:03;;;;;;;6.75;1.73;;;;;;;-0.07;76.75;98806.31;5086958;28;20102;-62
2022/02/08 00:26:30;;;;;;;7.35;1.67;;;;;;;-0.10;76.92;98806.59;5095951;28;20405;-62
2022/02/08 00:28:56;;;;;;;7.68;1.85;;;;;;;-0.11;77.57;98805.75;5078454;28;20048;-62
2022/02/08 00:31:23;;;;;;;2.00;0.82;;;;;;;-0.05;77.18;98805.19;5070874;28;20044;-62
2022/02/08 00:33:50;;;;;;;9.50;1.92;;;;;;;0.04;76.65;98813.28;5088851;28;20047;-62
2022/02/08 00:36:18;;;;;;;2.88;1.15;;;;;;;0.17;76.47;98805.75;5075349;28;20032;-62
2022/02/08 00:38:45;;;;;;;4.35;1.40;;;;;;;0.25;75.78;98813.00;5076422;28;20042;-62
2022/02/08 00:41:11;;;;;;;5.22;1.25;;;;;;;0.31;75.95;98812.41;5088235;28;20044;-62
2022/02/08 00:43:54;;;;;;;5.53;1.30;;;;;;;0.40;76.09;98809.84;5087630;28;20048;-62
2022/02/08 00:46:33;;;;;;;4.18;1.45;;;;;;;0.47;75.80;98805.56;5075298;28;20631;-62
2022/02/08 00:49:02;;;;;;;3.00;1.27;;;;;;;0.56;75.05;98811.81;5078218;28;20047;-62
2022/02/08 00:51:39;;;;;;;3.17;1.45;;;;;;;0.54;75.31;98811.13;5086376;28;20095;-62
2022/02/08 00:54:06;;;;;;;7.70;1.23;;;;;;;0.60;74.89;98813.19;5091776;28;20039;-62
2022/02/08 00:56:33;;;;;;;2.90;1.30;;;;;;;0.66;74.78;98820.56;5085161;28;20072;-62
2022/02/08 00:59:01;;;;;;;5.53;1.42;;;;;;;0.58;75.18;98821.34;5084975;28;20514;-62
2022/02/08 01:01:30;;;;;;;2.20;1.02;;;;;;;0.48;74.99;98825.91;5086389;28;20660;-62
2022/02/08 01:03:57;;;;;;;6.05;1.23;;;;;;;0.44;75.66;98821.88;5087836;28;20571;-62
2022/02/08 01:06:25;;;;;;;2.63;1.20;;;;;;;0.48;74.83;98823.25;5085638;28;20032;-61
2022/02/08 01:09:00;;;;;;;6.00;1.27;;;;;;;0.46;74.58;98827.88;5084152;28;20036;-62
2022/02/08 01:11:26;;;;;;;2.55;0.98;;;;;;;0.43;75.86;98831.69;5086396;28;20028;-62
2022/02/08 01:13:53;;;;;;;6.05;1.35;;;;;;;0.40;75.62;98820.50;5086420;28;20036;-62
2022/02/08 01:16:19;;;;;;;4.20;1.50;;;;;;;0.32;75.92;98822.09;5070939;28;20448;-62
2022/02/08 01:18:49;;;;;;;4.20;1.60;;;;;;;0.41;75.58;98824.84;5067428;28;20047;-62
2022/02/08 01:21:15;;;;;;;1.88;0.90;;;;;;;0.44;75.56;98814.69;5085357;28;20043;-62
2022/02/08 01:23:42;;;;;;;5.63;0.90;;;;;;;0.36;76.13;98818.13;5087858;28;20051;-62
2022/02/08 01:26:13;;;;;;;6.53;1.23;;;;;;;0.28;75.82;98830.50;5086056;28;20045;-62
2022/02/08 01:28:57;;;;;;;3.35;1.60;;;;;;;0.40;75.60;98826.66;5080188;28;20040;-62
2022/02/08 01:31:24;;;;;;;6.40;1.10;;;;;;;0.35;75.62;98828.94;5070461;28;20045;-62
2022/02/08 01:39:25;;;;;;;2.22;0.93;;;;;;;0.24;76.67;98843.31;5066328;28;20033;-62
2022/02/08 01:48:04;;;;;;;2.97;1.00;;;;;;;0.09;77.38;98840.28;5076940;28;20055;-62
2022/02/08 01:50:34;;;;;;;3.33;1.20;;;;;;;0.09;76.60;98832.31;5065857;28;20442;-62
2022/02/08 01:53:01;;;;;;;4.13;1.40;;;;;;;-0.09;77.96;98822.44;5065531;28;20045;-62
2022/02/08 01:55:33;;;;;;;7.45;1.58;;;;;;;-0.29;78.27;98814.53;5070184;28;20406;-62
2022/02/08 01:58:20;;;;;;;5.90;1.30;;;;;;;-0.30;78.49;98820.84;5082997;28;20102;-62
2022/02/08 02:00:51;;;;;;;6.40;1.30;;;;;;;-0.18;78.20;98824.16;5098288;28;20048;-62
2022/02/08 02:03:18;;;;;;;5.63;1.00;;;;;;;-0.15;78.08;98821.19;5088331;28;20055;-62
2022/02/08 02:05:45;;;;;;;6.45;1.33;;;;;;;-0.08;77.50;98825.97;5085163;28;20044;-62
2022/02/08 02:08:13;;;;;;;5.82;1.30;;;;;;;0.01;77.01;98813.56;5080965;28;20044;-62
2022/02/08 02:10:42;;;;;;;4.30;1.15;;;;;;;0.01;77.90;98810.91;5085688;28;20046;-62
2022/02/08 02:13:17;;;;;;;6.85;1.52;;;;;;;-0.02;77.64;98823.53;5085941;28;20048;-62
2022/02/08 02:15:46;;;;;;;4.30;1.30;;;;;;;0.07;77.03;98823.63;5084540;28;20044;-61
2022/02/08 02:18:12;;;;;;;4.30;1.20;;;;;;;0.08;76.59;98817.31;5082949;28;20051;-62
2022/02/08 02:20:39;;;;;;;5.32;1.35;;;;;;;-0.06;77.34;98815.97;5082567;28;20139;-62
2022/02/08 02:23:05;;;;;;;5.03;1.35;;;;;;;-0.07;77.76;98817.78;5084033;28;20052;-62
2022/02/08 02:25:33;;;;;;;5.10;1.30;;;;;;;-0.12;77.67;98817.41;5085185;28;20043;-62
2022/02/08 02:28:03;;;;;;;2.67;1.00;;;;;;;-0.08;77.69;98812.66;5069083;28;20048;-62
2022/02/08 02:30:32;;;;;;;5.53;0.95;;;;;;;-0.18;77.99;98807.34;5078295;28;20506;-62
2022/02/08 02:33:03;;;;;;;5.15;1.42;;;;;;;-0.25;78.19;98816.91;5082896;28;20052;-62
2022/02/08 02:35:32;;;;;;;6.82;1.27;;;;;;;-0.19;77.84;98814.50;5085197;28;20032;-62
2022/02/08 02:38:06;;;;;;;2.45;0.93;;;;;;;-0.23;77.88;98812.28;5071385;28;20060;-62
2022/02/08 02:40:40;;;;;;;4.57;1.67;;;;;;;-0.36;78.25;98809.94;5084941;28;20411;-62
2022/02/08 02:43:09;;;;;;;5.80;1.17;;;;;;;-0.35;78.46;98806.28;5069122;28;20543;-62
2022/02/08 02:45:37;;;;;;;6.43;2.17;;;;;;;-0.45;78.95;98808.97;5065548;28;20094;-62
2022/02/08 02:48:04;;;;;;;4.93;1.30;;;;;;;-0.41;78.96;98818.34;5077293;28;20589;-62
2022/02/08 02:50:39;;;;;;;4.85;1.30;;;;;;;-0.32;78.35;98816.66;5064606;28;20051;-62
2022/02/08 02:53:06;;;;;;;5.82;1.50;;;;;;;-0.27;78.65;98820.56;5078575;28;20048;-62
2022/02/08 02:55:34;;;;;;;4.13;1.52;;;;;;;-0.42;78.46;98824.66;5084683;28;20050;-62
2022/02/08 02:58:05;;;;;;;4.47;1.50;;;;;;;-0.56;78.36;98823.31;5071661;28;20045;-62
2022/02/08 03:00:42;;;;;;;9.38;1.35;;;;;;;-0.61;79.50;98812.25;5080879;28;20051;-62
2022/02/08 03:03:31;;;;;;;3.65;1.25;;;;;;;-0.63;79.50;98808.91;5082594;28;20560;-62
2022/02/08 03:19:27;;;;;;;7.53;1.55;;;;;;;-0.57;78.48;98813.66;5073218;28;20093;-62
2022/02/08 03:21:55;;;;;;;3.85;1.40;;;;;;;-0.72;79.35;98821.25;5084244;28;20044;-62
2022/02/08 03:24:22;;;;;;;4.30;1.70;;;;;;;-0.56;78.80;98823.31;5083970;28;20080;-62
2022/02/08 03:26:49;;;;;;;7.50;1.65;;;;;;;-0.57;78.66;98822.47;5064393;28;20500;-62
2022/02/08 03:29:16;;;;;;;4.43;1.20;;;;;;;-0.47;78.35;98825.13;5065102;28;20045;-62
2022/02/08 03:31:42;;;;;;;5.00;1.80;;;;;;;-0.42;78.04;98825.53;5068544;28;20087;-62
2022/02/08 03:34:10;;;;;;;3.25;1.80;;;;;;;-0.31;77.13;98821.84;5076206;28;20071;-62
2022/02/08 03:36:41;;;;;;;4.85;1.02;;;;;;;-0.30;77.40;98828.81;5076455;28;20040;-62
2022/02/08 03:39:16;;;;;;;3.40;1.33;;;;;;;-0.31;77.74;98818.31;5089965;28;20063;-62
2022/02/08 03:41:54;;;;;;;8.15;1.98;;;;;;;-0.33;77.58;98826.44;5076325;28;20151;-62
2022/02/08 03:44:30;;;;;;;5.95;1.45;;;;;;;-0.33;77.86;98823.78;5082524;28;20040;-62
2022/02/08 03:47:04;;;;;;;3.33;1.13;;;;;;;-0.36;78.19;98825.91;5083538;28;20127;-62
2022/02/08 03:49:32;;;;;;;8.45;1.92;;;;;;;-0.36;78.37;98820.59;5075732;28;20048;-62
2022/02/08 03:52:05;;;;;;;9.77;2.08;;;;;;;-0.29;78.12;98819.03;5064082;28;20041;-62
2022/02/08 03:54:36;;;;;;;5.60;1.67;;;;;;;-0.22;77.63;98824.59;5064435;28;20542;-62
2022/02/08 03:57:06;;;;;;;5.10;1.27;;;;;;;-0.17;77.79;98820.53;5063706;28;20474;-62
2022/02/08 03:59:33;;;;;;;5.95;1.20;;;;;;;-0.03;77.07;98819.19;5082118;28;20043;-61
2022/02/08 04:04:45;;;;;;;1.75;0.50;;;;;;;0.06;76.64;98820.13;5079129;28;20080;-62
2022/02/08 04:07:17;;;;;;;3.00;1.20;;;;;;;-0.02;77.20;98826.19;5065960;28;20525;-62
2022/02/08 04:09:51;;;;;;;4.53;1.50;;;;;;;-0.08;77.57;98825.97;5080160;28;20055;-62
2022/02/08 04:12:25;;;;;;;2.65;0.90;;;;;;;-0.01;77.35;98827.88;5066144;28;20458;-62
2022/02/08 04:18:18;;;;;;;4.50;1.08;;;;;;;-0.09;77.27;98826.91;5066939;28;20051;-62
2022/02/08 04:39:37;;;;;;;7.40;1.33;;;;;;;-0.10;78.26;98838.56;5064926;28;20044;-62
2022/02/08 04:42:17;;;;;;;4.53;1.50;;;;;;;-0.09;77.77;98841.09;5100637;28;20507;-63
2022/02/08 04:45:14;;;;;;;5.45;1.42;;;;;;;-0.04;77.67;98838.00;5097443;28;20078;-62
2022/02/08 04:47:40;;;;;;;5.47;1.40;;;;;;;0.10;77.76;98840.16;5067599;28;20044;-62
2022/02/08 04:50:07;;;;;;;5.05;1.65;;;;;;;0.17;77.10;98839.53;5071458;28;20076;-62
2022/02/08 04:52:34;;;;;;;7.68;1.67;;;;;;;0.29;77.33;98837.53;5068938;28;20072;-62
2022/02/08 05:49:03;;;;;;;4.85;1.40;;;;;;;0.70;76.97;98821.94;5081336;28;20131;-62
2022/02/08 05:54:20;;;;;;;7.28;2.10;;;;;;;0.59;77.10;98824.84;5065174;28;20127;-62
2022/02/08 05:56:52;;;;;;;4.07;1.05;;;;;;;0.70;76.79;98824.63;5088397;28;20079;-62
2022/02/08 05:59:19;;;;;;;5.50;1.20;;;;;;;0.70;77.11;98826.47;5090064;28;20089;-62
2022/02/08 06:01:46;;;;;;;4.60;1.23;;;;;;;0.67;76.78;98824.94;5084005;28;20079;-62
2022/02/08 06:04:27;;;;;;;4.07;1.23;;;;;;;0.74;76.72;98822.50;5071096;28;20114;-62
2022/02/08 06:06:55;;;;;;;8.18;1.80;;;;;;;0.59;76.79;98825.69;5094311;28;20040;-62
2022/02/08 06:09:22;;;;;;;14.93;2.28;;;;;;;0.50;77.35;98818.59;5082694;28;20069;-62
2022/02/08 06:11:49;;;;;;;4.57;1.50;;;;;;;0.49;77.54;98820.44;5089264;28;20499;-62
2022/02/08 06:14:24;;;;;;;4.65;1.58;;;;;;;0.54;77.38;98819.97;5080482;28;20793;-62
2022/02/08 06:16:52;;;;;;;5.40;1.35;;;;;;;0.63;77.21;98828.91;5087705;28;20120;-62
2022/02/08 06:19:18;;;;;;;5.70;1.63;;;;;;;0.61;77.52;98822.88;5085429;28;20036;-62
2022/02/08 06:21:45;;;;;;;6.18;1.55;;;;;;;0.60;77.15;98827.38;5075848;28;20104;-62
2022/02/08 06:24:13;;;;;;;7.53;2.10;;;;;;;0.60;77.03;98826.53;5083490;28;20051;-62
2022/02/08 06:26:40;;;;;;;5.15;1.63;;;;;;;0.62;77.01;98830.72;5070951;28;20097;-62
2022/02/08 06:29:16;;;;;;;7.05;1.70;;;;;;;0.66;76.86;98828.56;5084476;28;20458;-62
2022/02/08 06:31:44;;;;;;;8.68;1.95;;;;;;;0.70;76.97;98826.47;5077069;28;20089;-62
2022/02/08 06:34:14;;;;;;;10.85;1.70;;;;;;;0.69;77.06;98824.75;5100229;28;20073;-62
2022/02/08 06:36:41;;;;;;;7.93;1.60;;;;;;;0.69;77.34;98828.28;5086270;28;20040;-62
2022/02/08 06:39:08;;;;;;;7.03;1.95;;;;;;;0.75;76.80;98813.50;5094864;28;20051;-62
2022/02/08 06:41:34;;;;;;;3.55;1.13;;;;;;;0.77;76.78;98804.34;5096804;28;20048;-62
2022/02/08 06:44:02;;;;;;;5.07;1.17;;;;;;;0.85;76.61;98816.91;5094675;28;20081;-62
2022/02/08 06:46:29;;;;;;;4.82;1.33;;;;;;;0.94;75.97;98811.66;5088065;28;20465;-62
2022/02/08 06:48:57;;;;;;;6.72;1.92;;;;;;;0.99;75.78;98818.22;5086367;28;20119;-62
2022/02/08 06:51:23;;;;;;;5.65;1.35;;;;;;;1.10;75.39;98817.13;5099299;28;20052;-60
2022/02/08 06:53:50;;;;;;;1.73;0.82;;;;;;;1.03;75.81;98827.56;5101617;28;20530;-62
2022/02/08 06:56:16;;;;;;;4.93;1.95;;;;;;;1.07;75.39;98835.28;5090025;28;20075;-62
2022/02/08 06:58:56;;;;;;;3.75;1.17;;;;;;;1.19;75.04;98819.84;5091676;28;20063;-64
2022/02/08 07:01:27;;;;;;;2.45;1.80;;;;;;;1.16;75.17;98815.66;5083394;28;20606;-64
2022/02/08 07:03:54;;;;;;;4.28;1.38;;;;;;;1.28;74.97;98832.25;5093899;28;20043;-64
2022/02/08 07:06:22;;;;;;;11.43;2.13;;;;;;;1.26;75.04;98847.59;5087696;28;20050;-64
2022/02/08 07:08:49;;;;;;;7.53;1.77;;;;;;;1.29;74.64;98852.63;5097590;28;20036;-64
2022/02/08 07:11:17;;;;;;;8.40;1.70;;;;;;;1.33;74.88;98847.81;5083011;28;20102;-64
2022/02/08 07:13:45;;;;;;;11.30;4.97;;;;;;;1.29;74.76;98842.78;5084180;28;20044;-64
2022/02/08 07:16:14;;;;;;;18.05;6.85;;;;;;;1.30;76.94;98848.97;5076848;28;20089;-64
2022/02/08 07:18:41;;;;;;;18.00;6.90;;;;;;;1.33;75.46;98848.66;5064849;28;20713;-64
2022/02/08 07:21:08;;;;;;;11.65;2.97;;;;;;;1.28;75.83;98850.94;5078796;28;20051;-64
2022/02/08 07:23:35;;;;;;;6.95;1.77;;;;;;;1.24;75.36;98845.09;5086705;28;20040;-64
2022/02/08 07:26:02;;;;;;;9.80;3.42;;;;;;;1.15;75.52;98849.50;5098217;28;20044;-64
2022/02/08 07:28:29;;;;;;;11.60;4.00;;;;;;;1.10;75.82;98849.13;5104065;28;20048;-64
2022/02/08 07:31:02;;;;;;;12.70;5.03;;;;;;;1.06;76.14;98838.94;5075707;28;20086;-64
2022/02/08 07:33:32;;;;;;;4.97;2.60;;;;;;;1.11;76.00;98834.78;5089844;28;20370;-64
2022/02/08 07:36:09;;;;;;;7.60;1.73;;;;;;;1.08;76.06;98839.63;5093796;28;20050;-64
2022/02/08 07:38:39;;;;;;;9.07;3.03;;;;;;;0.99;75.93;98849.41;5072633;28;20118;-65
2022/02/08 07:43:32;;;;;;;7.88;2.65;;;;;;;1.09;75.79;98836.78;5078614;28;20032;-64
2022/02/08 07:46:06;;;;;;;7.95;2.85;;;;;;;1.25;75.40;98843.28;5098863;28;20055;-56
2022/02/08 07:48:32;;;;;;;6.15;1.55;;;;;;;1.40;74.99;98833.69;5071591;28;20040;-57
2022/02/08 07:50:59;;;;;;;12.13;4.40;;;;;;;1.61;74.64;98837.81;5078465;28;20055;-59
2022/02/08 07:53:27;;;;;;;9.35;1.80;;;;;;;1.65;74.03;98841.84;5081106;28;20105;-60
2022/02/08 07:55:55;;;;;;;5.18;2.58;;;;;;;1.72;73.72;98836.72;5080458;28;20122;-58
2022/02/08 07:58:22;;;;;;;7.68;2.47;;;;;;;1.72;73.80;98841.22;5074083;28;20480;-60
2022/02/08 08:00:48;;;;;;;5.95;2.40;;;;;;;1.69;74.03;98842.38;5074270;28;20036;-60
2022/02/08 08:03:16;;;;;;;2.38;1.25;;;;;;;1.75;73.39;98835.56;5072172;28;20089;-60
2022/02/08 08:05:42;;;;;;;8.15;1.63;;;;;;;1.81;74.12;98840.28;5080642;28;20101;-58
2022/02/08 08:08:11;;;;;;;8.65;2.17;;;;;;;1.83;73.64;98848.97;5078357;28;20134;-59
2022/02/08 08:10:43;;;;;;;5.85;2.40;;;;;;;1.95;72.98;98844.16;5074633;28;20441;-60
2022/02/08 08:13:12;;;;;;;5.07;1.38;;;;;;;1.92;73.54;98856.00;5073356;28;20530;-68
2022/02/08 08:15:45;;;;;;;9.23;2.17;;;;;;;1.81;74.07;98849.09;5072564;28;20088;-63
2022/02/08 08:18:24;;;;;;;7.90;2.47;;;;;;;1.78;74.49;98843.25;5084002;28;20047;-68
2022/02/08 08:20:51;;;;;;;4.13;1.35;;;;;;;1.78;74.15;98840.59;5080850;28;20509;-69
2022/02/08 08:23:18;;;;;;;5.88;2.28;;;;;;;1.92;73.62;98842.66;5091479;28;20047;-65
2022/02/08 08:25:45;;;;;;;12.27;3.72;;;;;;;2.01;73.80;98834.69;5078994;28;20054;-69
2022/02/08 08:28:11;;;;;;;7.05;2.05;;;;;;;2.13;73.55;98832.59;5074194;28;20036;-69
2022/02/08 08:30:38;;;;;;;10.95;2.85;;;;;;;2.16;73.54;98819.72;5085784;28;20399;-63
2022/02/08 08:33:07;;;;;;;8.13;1.88;;;;;;;2.29;73.53;98815.75;5086673;28;20101;-69
2022/02/08 08:35:53;;;;;;;6.00;1.70;;;;;;;2.39;72.81;98811.09;5086148;28;20048;-66
2022/02/08 08:38:20;;;;;;;9.80;1.63;;;;;;;2.45;72.85;98813.13;5082498;28;20093;-64
2022/02/08 08:41:04;;;;;;;6.82;1.50;;;;;;;2.40;73.22;98809.25;5088990;28;20036;-64
2022/02/08 08:43:51;;;;;;;6.40;1.73;;;;;;;2.53;72.32;98809.63;5086411;28;20368;-64
2022/02/08 08:51:45;;;;;;;9.85;2.25;;;;;;;2.89;72.27;98808.50;5079943;28;20041;-68
2022/02/08 08:54:13;;;;;;;7.30;2.03;;;;;;;3.02;71.97;98804.50;5086741;28;20056;-70
2022/02/08 08:56:42;;;;;;;6.32;1.95;;;;;;;3.05;71.74;98807.66;5085859;28;20082;-65
2022/02/08 08:59:10;;;;;;;8.00;1.85;;;;;;;3.13;71.45;98806.81;5088867;28;20077;-68
2022/02/08 09:01:37;;;;;;;7.22;2.00;;;;;;;3.16;71.05;98813.69;5088893;28;20047;-68
2022/02/08 09:04:05;;;;;;;10.50;4.25;;;;;;;3.20;71.32;98815.84;5081712;28;20075;-65
2022/02/08 09:06:36;;;;;;;7.07;1.88;;;;;;;3.33;71.21;98806.47;5082652;28;20618;-65
2022/02/08 09:09:11;;;;;;;9.85;2.20;;;;;;;3.46;71.27;98806.78;5092563;28;20101;-67
2022/02/08 09:11:50;;;;;;;6.47;1.48;;;;;;;3.66;71.22;98810.91;5085524;28;20885;-68
2022/02/08 09:14:19;;;;;;;2.78;1.08;;;;;;;3.81;69.98;98814.56;5075511;28;20051;-64
2022/02/08 09:17:51;;;;;;;8.93;1.42;;;;;;;3.79;70.83;98807.72;5079713;28;20036;-65
2022/02/08 09:25:04;;;;;;;10.70;3.05;;;;;;;4.09;70.99;98807.94;5080964;28;20537;-64
2022/02/08 09:27:56;;;;;;;3.65;1.23;;;;;;;4.27;69.75;98805.81;5079734;28;20488;-64
2022/02/08 09:30:33;;;;;;;7.97;1.85;;;;;;;4.40;69.45;98791.88;5085570;28;20059;-62
2022/02/08 09:33:00;;;;;;;4.50;1.27;;;;;;;4.45;69.61;98788.63;5089697;28;20093;-67
2022/02/08 09:35:27;;;;;;;5.88;1.40;;;;;;;4.63;70.30;98796.41;5099933;28;20054;-68
2022/02/08 09:37:53;;;;;;;10.60;1.73;;;;;;;4.84;69.06;98799.44;5087974;28;20152;-63
2022/02/08 09:40:22;;;;;;;4.13;1.50;;;;;;;4.94;68.64;98795.50;5090532;28;20040;-63
2022/02/08 09:42:51;;;;;;;4.22;1.40;;;;;;;5.22;69.50;98777.97;5074481;28;20059;-70
2022/02/08 09:45:20;;;;;;;5.95;1.88;;;;;;;5.36;67.87;98773.66;5083121;28;20102;-70
2022/02/08 09:47:58;;;;;;;5.40;1.55;;;;;;;5.08;68.20;98777.78;5083877;28;20045;-66
2022/02/08 09:50:28;;;;;;;9.82;2.13;;;;;;;4.92;69.31;98775.22;5083990;28;20601;-65
2022/02/08 09:52:58;;;;;;;8.77;1.27;;;;;;;4.98;69.57;98776.34;5085554;28;20047;-67
2022/02/08 09:55:29;;;;;;;8.27;1.60;;;;;;;5.24;69.62;98777.81;5084505;28;20052;-68
2022/02/08 09:57:56;;;;;;;3.95;1.60;;;;;;;5.33;68.71;98780.22;5080406;28;20047;-69
2022/02/08 10:00:24;;;;;;;7.25;1.60;;;;;;;5.45;69.09;98774.38;5087259;28;20063;-65
2022/02/08 10:03:01;;;;;;;7.88;1.98;;;;;;;5.57;68.58;98766.72;5085315;28;20040;-64
2022/02/08 10:05:38;;;;;;;6.03;1.55;;;;;;;5.85;67.80;98766.91;5084544;28;20055;-73
2022/02/08 10:08:06;;;;;;;8.00;1.52;;;;;;;6.38;67.30;98783.91;5084398;28;20384;-68
2022/02/08 10:10:33;;;;;;;6.00;1.65;;;;;;;6.76;66.20;98804.38;5077817;28;20391;-68
2022/02/08 10:13:14;;;;;;;5.95;1.45;;;;;;;6.84;66.67;98824.94;5084889;28;20092;-69
2022/02/08 10:24:06;;;;;;;3.38;1.10;;;;;;;6.56;68.07;98818.44;5084530;28;20051;-67
2022/02/08 10:40:11;;;;;;;3.47;1.17;;;;;;;7.21;67.56;98803.31;5072355;28;20048;-64
2022/02/08 10:42:49;;;;;;;4.75;0.88;;;;;;;7.48;67.25;98808.94;5094136;28;20056;-64
2022/02/08 10:45:21;;;;;;;1.67;0.55;;;;;;;7.67;67.58;98800.13;5077099;28;20066;-64
2022/02/08 10:47:58;;;;;;;4.38;0.73;;;;;;;7.57;68.02;98802.38;5082784;28;20042;-64
2022/02/08 10:50:26;;;;;;;2.08;0.80;;;;;;;7.42;67.25;98811.38;5070417;28;20048;-65
2022/02/08 10:52:56;;;;;;;4.07;0.70;;;;;;;7.43;67.14;98809.50;5072926;28;20046;-64
2022/02/08 10:55:31;;;;;;;1.38;0.40;;;;;;;7.53;67.00;98809.19;5078510;28;20502;-64
2022/02/08 10:58:12;;;;;;;3.30;0.63;;;;;;;7.50;66.92;98820.34;5085557;28;20032;-64
2022/02/08 11:00:52;;;;;;;6.78;1.00;;;;;;;7.57;67.13;98823.09;5073910;28;20052;-64
2022/02/08 11:03:43;;;;;;;3.45;0.70;;;;;;;7.48;67.87;98811.63;5087695;28;20090;-64
2022/02/08 11:09:43;;;;;;;3.92;0.70;;;;;;;7.96;66.86;98801.97;5087303;28;20048;-65
2022/02/08 11:12:06;;;;;;;4.25;0.75;;;;;;;7.93;66.48;98789.72;5076208;28;20645;-65
2022/02/08 11:20:20;;;;;;;4.07;0.52;;;;;;;7.81;66.20;98816.38;5084197;28;20434;-65
2022/02/08 11:23:25;;;;;;;3.42;0.60;;;;;;;7.72;66.60;98799.56;5069343;28;20144;-65
2022/02/08 11:25:53;;;;;;;2.58;0.60;;;;;;;8.06;65.41;98805.97;5076409;28;20523;-67
2022/02/08 11:31:28;;;;;;;6.88;0.68;;;;;;;8.41;64.58;98788.84;5075950;28;20104;-68
2022/02/08 11:54:05;;;;;;;5.25;0.57;;;;;;;8.28;64.46;98807.69;5091811;28;20059;-67
2022/02/08 12:32:17;;;;;;;4.18;0.70;;;;;;;8.09;66.28;98775.06;5083369;28;20048;-64
2022/02/08 13:03:02;;;;;;;4.13;1.00;;;;;;;8.00;66.79;98773.56;5068901;28;20576;-65
2022/02/08 14:03:14;;;;;;;1.80;1.27;;;;;;;8.12;67.45;98752.22;5075891;28;20045;-72
2022/02/08 14:16:48;;;;;;;3.28;0.60;;;;;;;7.90;69.01;98738.88;5080689;28;20384;-65
2022/02/08 14:21:55;;;;;;;3.70;1.05;;;;;;;7.96;69.00;98729.97;5080334;28;20097;-65
2022/02/08 14:29:51;;;;;;;1.95;0.63;;;;;;;8.13;68.02;98729.59;5089892;28;20043;-66
2022/02/08 14:37:31;;;;;;;1.65;0.70;;;;;;;7.66;69.64;98719.44;5084229;28;20058;-65
2022/02/08 15:10:18;;;;;;;3.88;1.05;;;;;;;7.42;70.20;98716.22;5068887;28;20419;-66
2022/02/08 15:12:51;;;;;;;2.78;0.70;;;;;;;7.30;70.75;98721.34;5073125;28;20411;-66
2022/02/08 15:18:07;;;;;;;3.50;0.82;;;;;;;7.25;71.55;98723.78;5061987;28;20220;-66
2022/02/08 15:20:37;;;;;;;2.42;0.73;;;;;;;7.09;71.94;98728.44;5078795;28;20051;-66
2022/02/08 15:23:25;;;;;;;4.25;1.10;;;;;;;7.15;72.00;98730.34;5081698;28;20128;-66
2022/02/08 15:25:54;;;;;;;2.63;0.77;;;;;;;7.19;71.73;98746.94;5080846;28;20032;-68
2022/02/08 15:28:23;;;;;;;2.17;1.20;;;;;;;6.84;73.13;98741.50;5079172;28;20077;-66
2022/02/08 15:30:52;;;;;;;2.88;0.70;;;;;;;6.88;73.57;98750.84;5084151;28;20036;-66
2022/02/08 15:33:19;;;;;;;1.88;0.40;;;;;;;6.85;73.78;98733.22;5078381;28;20055;-66
2022/02/08 15:35:46;;;;;;;1.80;0.40;;;;;;;6.82;73.59;98744.38;5075299;28;20052;-66
2022/02/08 15:38:12;;;;;;;3.28;0.57;;;;;;;6.93;73.29;98734.13;5084114;28;20044;-65
2022/02/08 15:40:41;;;;;;;3.65;0.90;;;;;;;6.87;73.24;98741.09;5082591;28;20496;-66
2022/02/08 15:43:09;;;;;;;3.83;0.85;;;;;;;6.83;73.31;98735.28;5081085;28;20048;-66
2022/02/08 15:45:47;;;;;;;6.15;0.93;;;;;;;6.72;74.16;98750.09;5084029;28;20086;-66
2022/02/08 15:48:20;;;;;;;3.17;0.77;;;;;;;6.69;74.58;98750.47;5065234;28;20056;-66
2022/02/08 15:50:57;;;;;;;8.25;1.25;;;;;;;6.69;74.19;98753.16;5077121;28;20047;-69
2022/02/08 16:05:12;;;;;;;4.18;1.10;;;;;;;6.74;74.44;98742.66;5080982;28;20122;-65
2022/02/08 16:09:51;;;;;;;3.38;0.70;;;;;;;6.56;74.96;98750.34;5082861;28;20043;-65
2022/02/08 16:17:58;;;;;;;3.42;0.75;;;;;;;6.47;75.40;98745.09;5081840;28;20451;-67
2022/02/08 16:57:10;;;;;;;2.58;0.77;;;;;;;6.50;76.40;98763.53;5091368;28;20151;-69
2022/02/08 16:59:39;;;;;;;3.90;0.90;;;;;;;6.49;76.36;98767.25;5098040;28;20043;-68
2022/02/08 17:02:07;;;;;;;5.18;1.23;;;;;;;6.48;76.45;98767.44;5093359;28;20118;-70
2022/02/08 17:04:35;;;;;;;3.20;0.95;;;;;;;6.51;76.66;98772.44;5080899;28;20044;-68
2022/02/08 17:07:02;;;;;;;3.30;0.80;;;;;;;6.59;75.75;98766.94;5079398;28;20044;-72
2022/02/08 17:09:45;;;;;;;2.78;0.80;;;;;;;6.55;76.14;98768.34;5080166;28;20085;-67
2022/02/08 17:12:21;;;;;;;1.85;0.75;;;;;;;6.49;76.01;98764.56;5097601;28;20055;-66
2022/02/08 17:49:37;;;;;;;3.67;1.38;;;;;;;5.58;80.27;98769.22;5081768;28;20045;-62
2022/02/08 17:52:06;;;;;;;5.07;1.60;;;;;;;5.64;80.04;98772.19;5081805;28;20048;-63
2022/02/08 17:54:32;;;;;;;6.25;1.77;;;;;;;5.64;80.14;98769.50;5088439;28;20059;-61
2022/02/08 17:56:59;;;;;;;5.80;1.95;;;;;;;5.67;80.10;98769.13;5081842;28;20075;-61
2022/02/08 17:59:26;;;;;;;7.00;1.98;;;;;;;5.71;80.37;98771.25;5086326;28;20043;-61
2022/02/08 18:01:53;;;;;;;6.05;1.75;;;;;;;5.65;79.91;98771.16;5077225;28;20041;-61
2022/02/08 18:04:20;;;;;;;5.70;1.65;;;;;;;5.83;77.64;98779.69;5078723;28;20048;-61
2022/02/08 18:06:47;;;;;;;11.10;2.15;;;;;;;5.91;78.08;98775.22;5084971;28;20044;-61
2022/02/08 18:09:17;;;;;;;5.50;2.30;;;;;;;5.85;78.83;98779.50;5083608;28;20101;-62
2022/02/08 18:11:45;;;;;;;6.45;2.50;;;;;;;5.88;77.95;98789.88;5085019;28;20048;-61
2022/02/08 18:14:17;;;;;;;5.10;1.88;;;;;;;5.98;76.86;98782.34;5084251;28;20101;-61
2022/02/08 18:16:45;;;;;;;;;;;;;;;5.99;76.81;98788.56;5083202;28;20044;-62
2022/02/08 18:19:17;;;;;;;4.50;1.42;;;;;;;6.10;75.63;98796.22;5074873;28;19924;-61
2022/02/08 18:22:07;;;;;;;4.10;1.10;;;;;;;6.24;75.39;98788.28;5082563;28;20035;-61
2022/02/08 18:24:54;;;;;;;11.73;4.68;;;;;;;6.30;74.43;98789.41;5078846;28;20048;-61
2022/02/08 19:07:02;;;;;;;17.63;8.75;;;;;;;5.82;78.06;98814.84;5088880;28;20044;-61
2022/02/08 19:14:18;;;;;;;29.05;16.88;;;;;;;5.65;79.01;98816.84;5082326;28;20105;-61
2022/02/08 19:16:59;;;;;;;7.55;3.85;;;;;;;5.67;79.20;98817.47;5078826;28;20048;-61
2022/02/08 19:22:01;;;;;;;14.85;6.10;;;;;;;5.65;79.41;98814.16;5073609;28;20048;-61
2022/02/08 19:24:27;;;;;;;9.48;2.63;;;;;;;5.59;79.69;98811.19;5072714;28;20050;-62
2022/02/08 19:26:59;;;;;;;12.30;4.18;;;;;;;5.55;80.11;98809.91;5072443;28;20040;-61
2022/02/08 19:29:29;;;;;;;5.25;2.10;;;;;;;5.54;80.16;98804.69;5075721;28;20044;-62
2022/02/08 19:31:56;;;;;;;8.85;3.25;;;;;;;5.57;80.02;98799.78;5083329;28;20047;-61
2022/02/08 19:34:24;;;;;;;10.15;2.88;;;;;;;5.69;80.07;98807.41;5093169;28;20048;-61
2022/02/08 19:36:53;;;;;;;7.03;2.28;;;;;;;5.73;79.42;98814.06;5068195;28;20048;-61
2022/02/08 19:39:19;;;;;;;9.45;3.22;;;;;;;5.68;79.83;98816.50;5077958;28;20417;-61
2022/02/08 19:41:46;;;;;;;9.98;2.58;;;;;;;5.71;80.17;98811.56;5079723;28;20043;-61
2022/02/08 19:44:12;;;;;;;6.00;2.58;;;;;;;5.68;80.36;98811.94;5083441;28;20048;-61
2022/02/08 19:46:39;;;;;;;8.73;2.92;;;;;;;5.72;80.58;98820.47;5086350;28;20040;-61
2022/02/08 19:49:07;;;;;;;7.55;2.95;;;;;;;5.84;80.39;98813.63;5076967;28;20047;-61
2022/02/08 19:51:37;;;;;;;5.32;2.60;;;;;;;5.93;80.11;98810.84;5074467;28;20048;-61
2022/02/08 19:54:09;;;;;;;11.75;3.08;;;;;;;5.77;80.29;98810.00;5078540;28;20093;-60
2022/02/08 19:56:41;;;;;;;11.15;2.90;;;;;;;5.76;80.77;98812.88;5082240;28;20767;-61
2022/02/08 19:59:11;;;;;;;11.35;2.35;;;;;;;5.83;80.56;98817.31;5074731;28;20503;-61
2022/02/08 20:01:40;;;;;;;7.68;3.17;;;;;;;5.77;80.58;98811.84;5085157;28;20058;-61
2022/02/08 20:04:17;;;;;;;7.07;2.67;;;;;;;5.84;80.45;98816.31;5072615;28;20047;-62
2022/02/08 20:06:46;;;;;;;10.10;3.05;;;;;;;5.87;80.73;98817.78;5074677;28;20083;-62
2022/02/08 20:09:14;;;;;;;9.25;2.90;;;;;;;5.85;80.77;98817.13;5081795;28;20057;-62